sensor_id;sensor_type;location;lat;lon;timestamp;P1;durP1;ratioP1;P2;durP2;ratioP2
1344;SDS011;15375;48.540;9.268;2023-02-04T00:01:30;1.23;;;1.13;;
1344;SDS011;15375;48.540;9.268;2023-02-04T00:03:55;1.43;;;0.93;;
1344;SDS011;15375;48.540;9.268;2023-02-04T00:06:21;1.00;;;0.93;;
1344;SDS011;15375;48.540;9.268;2023-02-04T00:08:46;1.60;;;0.90;;
1344;SDS011;15375;48.540;9.268;2023-02-04T00:11:11;1.13;;;0.93;;
1344;SDS011;15375;48.540;9.268;2023-02-04T00:13:37;1.23;;;1.13;;
1344;SDS011;15375;48.540;9.268;2023-02-04T00:16:02;1.00;;;1.00;;
1344;SDS011;15375;48.540;9.268;2023-02-04T00:18:28;1.10;;;1.00;;
1344;SDS011;15375;48.540;9.268;2023-02-04T00:20:53;1.57;;;1.30;;
1344;SDS011;15375;48.540;9.268;2023-02-04T00:23:19;4.20;;;1.00;;
1344;SDS011;15375;48.540;9.268;2023-02-04T00:25:44;1.80;;;1.43;;
1344;SDS011;15375;48.540;9.268;2023-02-04T00:28:09;1.70;;;1.10;;
1344;SDS011;15375;48.540;9.268;2023-02-04T00:30:35;0.90;;;0.90;;
1344;SDS011;15375;48.540;9.268;2023-02-04T00:33:00;1.30;;;1.10;;
1344;SDS011;15375;48.540;9.268;2023-02-04T00:35:26;0.83;;;0.83;;
1344;SDS011;15375;48.540;9.268;2023-02-04T00:37:52;0.97;;;0.87;;
1344;SDS011;15375;48.540;9.268;2023-02-04T00:40:17;1.50;;;1.13;;
1344;SDS011;15375;48.540;9.268;2023-02-04T00:42:43;1.40;;;1.20;;
1344;SDS011;15375;48.540;9.268;2023-02-04T00:45:08;1.00;;;0.80;;
1344;SDS011;15375;48.540;9.268;2023-02-04T00:47:34;1.17;;;1.17;;
1344;SDS011;15375;48.540;9.268;2023-02-04T00:49:59;1.23;;;1.00;;
1344;SDS011;15375;48.540;9.268;2023-02-04T00:52:24;1.00;;;1.00;;
1344;SDS011;15375;48.540;9.268;2023-02-04T00:54:50;1.70;;;1.50;;
1344;SDS011;15375;48.540;9.268;2023-02-04T00:57:15;1.50;;;1.20;;
1344;SDS011;15375;48.540;9.268;2023-02-04T00:59:40;1.50;;;1.40;;
1344;SDS011;15375;48.540;9.268;2023-02-04T01:02:06;1.70;;;1.40;;
1344;SDS011;15375;48.540;9.268;2023-02-04T01:04:31;1.70;;;1.10;;
1344;SDS011;15375;48.540;9.268;2023-02-04T01:06:56;2.47;;;1.10;;
1344;SDS011;15375;48.540;9.268;2023-02-04T01:09:22;3.00;;;1.37;;
1344;SDS011;15375;48.540;9.268;2023-02-04T01:11:47;1.80;;;1.10;;
1344;SDS011;15375;48.540;9.268;2023-02-04T01:14:13;3.23;;;1.83;;
1344;SDS011;15375;48.540;9.268;2023-02-04T01:16:38;1.33;;;1.23;;
1344;SDS011;15375;48.540;9.268;2023-02-04T01:19:04;1.37;;;1.27;;
1344;SDS011;15375;48.540;9.268;2023-02-04T01:21:29;2.20;;;1.33;;
1344;SDS011;15375;48.540;9.268;2023-02-04T01:23:55;1.30;;;1.20;;
1344;SDS011;15375;48.540;9.268;2023-02-04T01:26:20;1.50;;;1.40;;
1344;SDS011;15375;48.540;9.268;2023-02-04T01:28:46;1.67;;;1.40;;
1344;SDS011;15375;48.540;9.268;2023-02-04T01:31:12;1.30;;;1.20;;
1344;SDS011;15375;48.540;9.268;2023-02-04T01:33:38;2.83;;;1.73;;
1344;SDS011;15375;48.540;9.268;2023-02-04T01:36:04;2.27;;;1.50;;
1344;SDS011;15375;48.540;9.268;2023-02-04T01:38:29;1.50;;;1.30;;
1344;SDS011;15375;48.540;9.268;2023-02-04T01:40:55;3.30;;;1.30;;
1344;SDS011;15375;48.540;9.268;2023-02-04T01:43:21;1.70;;;1.60;;
1344;SDS011;15375;48.540;9.268;2023-02-04T01:45:47;1.73;;;1.50;;
1344;SDS011;15375;48.540;9.268;2023-02-04T01:48:13;2.17;;;1.60;;
1344;SDS011;15375;48.540;9.268;2023-02-04T01:50:47;2.00;;;1.73;;
1344;SDS011;15375;48.540;9.268;2023-02-04T01:53:15;2.17;;;1.60;;
1344;SDS011;15375;48.540;9.268;2023-02-04T01:55:44;2.70;;;1.90;;
1344;SDS011;15375;48.540;9.268;2023-02-04T01:58:09;1.83;;;1.63;;
1344;SDS011;15375;48.540;9.268;2023-02-04T02:00:37;2.37;;;2.17;;
1344;SDS011;15375;48.540;9.268;2023-02-04T02:03:03;2.23;;;2.03;;
1344;SDS011;15375;48.540;9.268;2023-02-04T02:05:32;1.70;;;1.60;;
1344;SDS011;15375;48.540;9.268;2023-02-04T02:08:08;2.03;;;1.87;;
1344;SDS011;15375;48.540;9.268;2023-02-04T02:10:34;2.17;;;1.97;;
1344;SDS011;15375;48.540;9.268;2023-02-04T02:13:02;2.60;;;2.40;;
1344;SDS011;15375;48.540;9.268;2023-02-04T02:15:29;3.20;;;2.53;;
1344;SDS011;15375;48.540;9.268;2023-02-04T02:17:54;5.00;;;2.17;;
1344;SDS011;15375;48.540;9.268;2023-02-04T02:20:21;2.50;;;2.27;;
1344;SDS011;15375;48.540;9.268;2023-02-04T02:25:19;4.97;;;2.70;;
1344;SDS011;15375;48.540;9.268;2023-02-04T02:27:45;1.90;;;1.60;;
1344;SDS011;15375;48.540;9.268;2023-02-04T02:30:11;2.23;;;2.03;;
1344;SDS011;15375;48.540;9.268;2023-02-04T02:32:42;4.53;;;1.93;;
1344;SDS011;15375;48.540;9.268;2023-02-04T02:35:09;3.53;;;1.80;;
1344;SDS011;15375;48.540;9.268;2023-02-04T02:37:34;2.07;;;1.90;;
1344;SDS011;15375;48.540;9.268;2023-02-04T02:40:00;3.10;;;1.50;;
1344;SDS011;15375;48.540;9.268;2023-02-04T02:42:26;2.50;;;1.80;;
1344;SDS011;15375;48.540;9.268;2023-02-04T02:44:51;1.70;;;1.33;;
1344;SDS011;15375;48.540;9.268;2023-02-04T02:47:18;1.73;;;1.50;;
1344;SDS011;15375;48.540;9.268;2023-02-04T02:49:46;2.33;;;1.47;;
1344;SDS011;15375;48.540;9.268;2023-02-04T02:52:14;6.33;;;1.50;;
1344;SDS011;15375;48.540;9.268;2023-02-04T02:54:40;1.43;;;1.30;;
1344;SDS011;15375;48.540;9.268;2023-02-04T02:57:09;2.50;;;1.40;;
1344;SDS011;15375;48.540;9.268;2023-02-04T02:59:37;2.20;;;1.20;;
1344;SDS011;15375;48.540;9.268;2023-02-04T03:02:03;5.50;;;1.50;;
1344;SDS011;15375;48.540;9.268;2023-02-04T03:04:30;3.70;;;1.33;;
1344;SDS011;15375;48.540;9.268;2023-02-04T03:06:58;4.70;;;1.43;;
1344;SDS011;15375;48.540;9.268;2023-02-04T03:09:24;3.90;;;1.30;;
1344;SDS011;15375;48.540;9.268;2023-02-04T03:11:51;6.90;;;1.87;;
1344;SDS011;15375;48.540;9.268;2023-02-04T03:14:17;1.93;;;1.20;;
1344;SDS011;15375;48.540;9.268;2023-02-04T03:16:43;2.47;;;1.33;;
1344;SDS011;15375;48.540;9.268;2023-02-04T03:19:10;2.47;;;1.40;;
1344;SDS011;15375;48.540;9.268;2023-02-04T03:21:36;2.60;;;1.80;;
1344;SDS011;15375;48.540;9.268;2023-02-04T03:24:03;1.53;;;1.40;;
1344;SDS011;15375;48.540;9.268;2023-02-04T03:26:29;3.13;;;1.80;;
1344;SDS011;15375;48.540;9.268;2023-02-04T03:28:54;3.13;;;1.67;;
1344;SDS011;15375;48.540;9.268;2023-02-04T03:31:20;4.07;;;1.93;;
1344;SDS011;15375;48.540;9.268;2023-02-04T03:33:45;2.80;;;1.83;;
1344;SDS011;15375;48.540;9.268;2023-02-04T03:36:11;5.10;;;2.10;;
1344;SDS011;15375;48.540;9.268;2023-02-04T03:38:36;3.90;;;1.57;;
1344;SDS011;15375;48.540;9.268;2023-02-04T03:41:02;3.73;;;1.63;;
1344;SDS011;15375;48.540;9.268;2023-02-04T03:43:27;5.23;;;1.83;;
1344;SDS011;15375;48.540;9.268;2023-02-04T03:45:53;8.03;;;1.80;;
1344;SDS011;15375;48.540;9.268;2023-02-04T03:48:18;3.43;;;2.17;;
1344;SDS011;15375;48.540;9.268;2023-02-04T03:50:43;7.20;;;1.60;;
1344;SDS011;15375;48.540;9.268;2023-02-04T03:53:09;3.00;;;1.97;;
1344;SDS011;15375;48.540;9.268;2023-02-04T03:55:35;6.10;;;1.93;;
1344;SDS011;15375;48.540;9.268;2023-02-04T03:58:01;5.23;;;1.83;;
1344;SDS011;15375;48.540;9.268;2023-02-04T04:00:27;2.47;;;1.90;;
1344;SDS011;15375;48.540;9.268;2023-02-04T04:02:52;10.23;;;2.50;;
1344;SDS011;15375;48.540;9.268;2023-02-04T04:05:18;3.03;;;1.63;;
1344;SDS011;15375;48.540;9.268;2023-02-04T04:07:43;6.20;;;2.07;;
1344;SDS011;15375;48.540;9.268;2023-02-04T04:10:09;4.87;;;2.53;;
1344;SDS011;15375;48.540;9.268;2023-02-04T04:12:35;4.23;;;2.07;;
1344;SDS011;15375;48.540;9.268;2023-02-04T04:15:00;2.90;;;1.67;;
1344;SDS011;15375;48.540;9.268;2023-02-04T04:17:25;3.27;;;2.10;;
1344;SDS011;15375;48.540;9.268;2023-02-04T04:19:51;3.23;;;2.10;;
1344;SDS011;15375;48.540;9.268;2023-02-04T04:22:16;6.27;;;1.90;;
1344;SDS011;15375;48.540;9.268;2023-02-04T04:24:41;3.63;;;2.30;;
1344;SDS011;15375;48.540;9.268;2023-02-04T04:27:07;4.70;;;3.03;;
1344;SDS011;15375;48.540;9.268;2023-02-04T04:29:32;2.83;;;1.87;;
1344;SDS011;15375;48.540;9.268;2023-02-04T04:31:58;4.13;;;1.87;;
1344;SDS011;15375;48.540;9.268;2023-02-04T04:34:23;2.33;;;1.70;;
1344;SDS011;15375;48.540;9.268;2023-02-04T04:36:48;4.93;;;2.10;;
1344;SDS011;15375;48.540;9.268;2023-02-04T04:39:14;2.50;;;1.93;;
1344;SDS011;15375;48.540;9.268;2023-02-04T04:41:39;4.10;;;2.23;;
1344;SDS011;15375;48.540;9.268;2023-02-04T04:44:04;6.07;;;2.50;;
1344;SDS011;15375;48.540;9.268;2023-02-04T04:46:30;6.00;;;2.93;;
1344;SDS011;15375;48.540;9.268;2023-02-04T04:48:55;10.60;;;2.63;;
1344;SDS011;15375;48.540;9.268;2023-02-04T04:51:20;4.37;;;1.80;;
1344;SDS011;15375;48.540;9.268;2023-02-04T04:53:46;6.10;;;2.30;;
1344;SDS011;15375;48.540;9.268;2023-02-04T04:56:11;4.50;;;2.27;;
1344;SDS011;15375;48.540;9.268;2023-02-04T04:58:37;2.30;;;2.10;;
1344;SDS011;15375;48.540;9.268;2023-02-04T05:01:02;3.97;;;2.30;;
1344;SDS011;15375;48.540;9.268;2023-02-04T05:03:27;3.33;;;2.10;;
1344;SDS011;15375;48.540;9.268;2023-02-04T05:05:53;2.60;;;1.90;;
1344;SDS011;15375;48.540;9.268;2023-02-04T05:08:18;3.77;;;2.70;;
1344;SDS011;15375;48.540;9.268;2023-02-04T05:10:44;7.10;;;2.97;;
1344;SDS011;15375;48.540;9.268;2023-02-04T05:13:10;6.03;;;2.43;;
1344;SDS011;15375;48.540;9.268;2023-02-04T05:15:36;7.47;;;3.67;;
1344;SDS011;15375;48.540;9.268;2023-02-04T05:18:02;3.03;;;2.40;;
1344;SDS011;15375;48.540;9.268;2023-02-04T05:20:27;3.10;;;2.20;;
1344;SDS011;15375;48.540;9.268;2023-02-04T05:22:53;4.13;;;2.67;;
1344;SDS011;15375;48.540;9.268;2023-02-04T05:25:20;3.60;;;2.10;;
1344;SDS011;15375;48.540;9.268;2023-02-04T05:27:46;3.27;;;2.50;;
1344;SDS011;15375;48.540;9.268;2023-02-04T05:30:12;5.27;;;2.27;;
1344;SDS011;15375;48.540;9.268;2023-02-04T05:32:38;2.03;;;1.93;;
1344;SDS011;15375;48.540;9.268;2023-02-04T05:35:04;3.77;;;2.43;;
1344;SDS011;15375;48.540;9.268;2023-02-04T05:37:30;3.77;;;2.43;;
1344;SDS011;15375;48.540;9.268;2023-02-04T05:39:56;4.83;;;2.43;;
1344;SDS011;15375;48.540;9.268;2023-02-04T05:42:21;4.77;;;3.17;;
1344;SDS011;15375;48.540;9.268;2023-02-04T05:44:46;8.53;;;3.03;;
1344;SDS011;15375;48.540;9.268;2023-02-04T05:47:12;7.33;;;3.10;;
1344;SDS011;15375;48.540;9.268;2023-02-04T05:49:37;3.83;;;3.10;;
1344;SDS011;15375;48.540;9.268;2023-02-04T05:52:03;4.43;;;2.47;;
1344;SDS011;15375;48.540;9.268;2023-02-04T05:54:28;5.70;;;2.40;;
1344;SDS011;15375;48.540;9.268;2023-02-04T05:56:53;3.67;;;2.00;;
1344;SDS011;15375;48.540;9.268;2023-02-04T05:59:19;9.13;;;2.43;;
1344;SDS011;15375;48.540;9.268;2023-02-04T06:01:44;4.50;;;3.10;;
1344;SDS011;15375;48.540;9.268;2023-02-04T06:04:10;4.93;;;2.10;;
1344;SDS011;15375;48.540;9.268;2023-02-04T06:06:35;5.10;;;2.53;;
1344;SDS011;15375;48.540;9.268;2023-02-04T06:09:01;3.73;;;1.97;;
1344;SDS011;15375;48.540;9.268;2023-02-04T06:11:26;4.23;;;2.70;;
1344;SDS011;15375;48.540;9.268;2023-02-04T06:13:52;6.83;;;2.73;;
1344;SDS011;15375;48.540;9.268;2023-02-04T06:16:17;5.90;;;2.30;;
1344;SDS011;15375;48.540;9.268;2023-02-04T06:18:42;3.30;;;2.37;;
1344;SDS011;15375;48.540;9.268;2023-02-04T06:21:08;3.00;;;2.50;;
1344;SDS011;15375;48.540;9.268;2023-02-04T06:23:33;9.70;;;3.30;;
1344;SDS011;15375;48.540;9.268;2023-02-04T06:26:01;5.97;;;2.40;;
1344;SDS011;15375;48.540;9.268;2023-02-04T06:28:27;3.47;;;2.20;;
1344;SDS011;15375;48.540;9.268;2023-02-04T06:30:52;8.10;;;2.53;;
1344;SDS011;15375;48.540;9.268;2023-02-04T06:33:18;3.37;;;2.80;;
1344;SDS011;15375;48.540;9.268;2023-02-04T06:35:45;4.50;;;2.40;;
1344;SDS011;15375;48.540;9.268;2023-02-04T06:38:11;2.87;;;2.33;;
1344;SDS011;15375;48.540;9.268;2023-02-04T06:40:36;6.17;;;2.90;;
1344;SDS011;15375;48.540;9.268;2023-02-04T06:43:02;7.83;;;3.27;;
1344;SDS011;15375;48.540;9.268;2023-02-04T06:45:27;9.93;;;3.17;;
1344;SDS011;15375;48.540;9.268;2023-02-04T06:47:53;4.07;;;2.73;;
1344;SDS011;15375;48.540;9.268;2023-02-04T06:50:18;6.53;;;2.97;;
1344;SDS011;15375;48.540;9.268;2023-02-04T06:52:44;5.10;;;3.57;;
1344;SDS011;15375;48.540;9.268;2023-02-04T06:55:10;4.50;;;3.40;;
1344;SDS011;15375;48.540;9.268;2023-02-04T06:57:37;7.40;;;3.37;;
1344;SDS011;15375;48.540;9.268;2023-02-04T07:00:02;6.33;;;3.90;;
1344;SDS011;15375;48.540;9.268;2023-02-04T07:02:28;5.40;;;3.20;;
1344;SDS011;15375;48.540;9.268;2023-02-04T07:04:53;6.30;;;3.63;;
1344;SDS011;15375;48.540;9.268;2023-02-04T07:07:19;9.93;;;4.07;;
1344;SDS011;15375;48.540;9.268;2023-02-04T07:09:44;6.30;;;3.70;;
1344;SDS011;15375;48.540;9.268;2023-02-04T07:12:09;4.80;;;3.90;;
1344;SDS011;15375;48.540;9.268;2023-02-04T07:14:35;3.50;;;3.00;;
1344;SDS011;15375;48.540;9.268;2023-02-04T07:17:00;7.43;;;3.30;;
1344;SDS011;15375;48.540;9.268;2023-02-04T07:19:25;10.70;;;4.30;;
1344;SDS011;15375;48.540;9.268;2023-02-04T07:21:51;8.83;;;4.27;;
1344;SDS011;15375;48.540;9.268;2023-02-04T07:24:20;7.47;;;3.53;;
1344;SDS011;15375;48.540;9.268;2023-02-04T07:26:46;6.77;;;3.57;;
1344;SDS011;15375;48.540;9.268;2023-02-04T07:29:11;6.07;;;3.83;;
1344;SDS011;15375;48.540;9.268;2023-02-04T07:31:36;14.03;;;4.67;;
1344;SDS011;15375;48.540;9.268;2023-02-04T07:34:02;6.60;;;3.93;;
1344;SDS011;15375;48.540;9.268;2023-02-04T07:36:27;10.80;;;4.43;;
1344;SDS011;15375;48.540;9.268;2023-02-04T07:38:52;10.27;;;5.43;;
1344;SDS011;15375;48.540;9.268;2023-02-04T07:41:18;13.57;;;4.80;;
1344;SDS011;15375;48.540;9.268;2023-02-04T07:43:45;6.87;;;3.73;;
1344;SDS011;15375;48.540;9.268;2023-02-04T07:46:10;10.10;;;5.37;;
1344;SDS011;15375;48.540;9.268;2023-02-04T07:48:35;14.40;;;5.97;;
1344;SDS011;15375;48.540;9.268;2023-02-04T07:51:01;11.77;;;4.50;;
1344;SDS011;15375;48.540;9.268;2023-02-04T07:53:26;8.80;;;5.07;;
1344;SDS011;15375;48.540;9.268;2023-02-04T07:55:51;5.10;;;4.30;;
1344;SDS011;15375;48.540;9.268;2023-02-04T07:58:17;12.63;;;5.40;;
1344;SDS011;15375;48.540;9.268;2023-02-04T08:00:42;10.47;;;4.63;;
1344;SDS011;15375;48.540;9.268;2023-02-04T08:03:07;7.47;;;4.77;;
1344;SDS011;15375;48.540;9.268;2023-02-04T08:05:33;9.90;;;5.13;;
1344;SDS011;15375;48.540;9.268;2023-02-04T08:07:58;9.37;;;4.53;;
1344;SDS011;15375;48.540;9.268;2023-02-04T08:10:25;7.30;;;4.60;;
1344;SDS011;15375;48.540;9.268;2023-02-04T08:12:51;7.13;;;4.70;;
1344;SDS011;15375;48.540;9.268;2023-02-04T08:15:16;8.17;;;4.60;;
1344;SDS011;15375;48.540;9.268;2023-02-04T08:17:42;11.20;;;5.77;;
1344;SDS011;15375;48.540;9.268;2023-02-04T08:20:07;10.70;;;4.57;;
1344;SDS011;15375;48.540;9.268;2023-02-04T08:22:33;11.00;;;5.37;;
1344;SDS011;15375;48.540;9.268;2023-02-04T08:24:59;10.60;;;5.60;;
1344;SDS011;15375;48.540;9.268;2023-02-04T08:27:24;7.10;;;4.70;;
1344;SDS011;15375;48.540;9.268;2023-02-04T08:29:50;13.83;;;6.30;;
1344;SDS011;15375;48.540;9.268;2023-02-04T08:32:15;10.40;;;5.37;;
1344;SDS011;15375;48.540;9.268;2023-02-04T08:34:41;8.97;;;5.60;;
1344;SDS011;15375;48.540;9.268;2023-02-04T08:37:06;11.73;;;5.57;;
1344;SDS011;15375;48.540;9.268;2023-02-04T08:39:31;17.63;;;6.90;;
1344;SDS011;15375;48.540;9.268;2023-02-04T08:41:57;10.10;;;5.90;;
1344;SDS011;15375;48.540;9.268;2023-02-04T08:44:22;15.03;;;7.80;;
1344;SDS011;15375;48.540;9.268;2023-02-04T08:46:48;10.93;;;6.83;;
1344;SDS011;15375;48.540;9.268;2023-02-04T08:49:13;23.07;;;11.67;;
1344;SDS011;15375;48.540;9.268;2023-02-04T08:51:38;17.37;;;8.90;;
1344;SDS011;15375;48.540;9.268;2023-02-04T08:54:04;17.30;;;6.90;;
1344;SDS011;15375;48.540;9.268;2023-02-04T08:56:29;13.70;;;6.53;;
1344;SDS011;15375;48.540;9.268;2023-02-04T08:58:55;10.90;;;5.70;;
1344;SDS011;15375;48.540;9.268;2023-02-04T09:01:20;9.63;;;7.00;;
1344;SDS011;15375;48.540;9.268;2023-02-04T09:03:46;10.70;;;6.17;;
1344;SDS011;15375;48.540;9.268;2023-02-04T09:06:11;10.43;;;5.60;;
1344;SDS011;15375;48.540;9.268;2023-02-04T09:08:37;10.30;;;6.13;;
1344;SDS011;15375;48.540;9.268;2023-02-04T09:11:02;11.50;;;6.30;;
1344;SDS011;15375;48.540;9.268;2023-02-04T09:13:28;12.40;;;6.17;;
1344;SDS011;15375;48.540;9.268;2023-02-04T09:15:54;13.23;;;6.70;;
1344;SDS011;15375;48.540;9.268;2023-02-04T09:18:19;15.43;;;7.13;;
1344;SDS011;15375;48.540;9.268;2023-02-04T09:20:47;12.23;;;6.70;;
1344;SDS011;15375;48.540;9.268;2023-02-04T09:23:13;22.60;;;7.63;;
1344;SDS011;15375;48.540;9.268;2023-02-04T09:25:40;10.37;;;6.63;;
1344;SDS011;15375;48.540;9.268;2023-02-04T09:28:08;15.10;;;7.33;;
1344;SDS011;15375;48.540;9.268;2023-02-04T09:30:35;16.83;;;6.87;;
1344;SDS011;15375;48.540;9.268;2023-02-04T09:33:04;13.77;;;7.87;;
1344;SDS011;15375;48.540;9.268;2023-02-04T09:35:30;14.90;;;7.30;;
1344;SDS011;15375;48.540;9.268;2023-02-04T09:37:56;14.40;;;8.03;;
1344;SDS011;15375;48.540;9.268;2023-02-04T09:40:21;19.27;;;8.73;;
1344;SDS011;15375;48.540;9.268;2023-02-04T09:42:48;17.30;;;8.57;;
1344;SDS011;15375;48.540;9.268;2023-02-04T09:45:16;14.27;;;7.90;;
1344;SDS011;15375;48.540;9.268;2023-02-04T09:47:52;14.27;;;8.37;;
1344;SDS011;15375;48.540;9.268;2023-02-04T09:50:19;16.50;;;7.90;;
1344;SDS011;15375;48.540;9.268;2023-02-04T09:52:48;17.40;;;9.37;;
1344;SDS011;15375;48.540;9.268;2023-02-04T09:55:16;15.60;;;8.27;;
1344;SDS011;15375;48.540;9.268;2023-02-04T09:57:43;11.37;;;7.23;;
1344;SDS011;15375;48.540;9.268;2023-02-04T10:00:16;15.53;;;8.37;;
1344;SDS011;15375;48.540;9.268;2023-02-04T10:02:44;16.10;;;7.00;;
1344;SDS011;15375;48.540;9.268;2023-02-04T10:05:20;16.73;;;9.40;;
1344;SDS011;15375;48.540;9.268;2023-02-04T10:07:54;14.80;;;5.87;;
1344;SDS011;15375;48.540;9.268;2023-02-04T10:10:21;9.87;;;5.40;;
1344;SDS011;15375;48.540;9.268;2023-02-04T10:12:50;11.10;;;5.33;;
1344;SDS011;15375;48.540;9.268;2023-02-04T10:15:21;11.90;;;4.87;;
1344;SDS011;15375;48.540;9.268;2023-02-04T10:17:54;16.57;;;7.37;;
1344;SDS011;15375;48.540;9.268;2023-02-04T10:20:25;8.40;;;5.30;;
1344;SDS011;15375;48.540;9.268;2023-02-04T10:22:52;10.43;;;5.07;;
1344;SDS011;15375;48.540;9.268;2023-02-04T10:25:20;18.50;;;5.70;;
1344;SDS011;15375;48.540;9.268;2023-02-04T10:27:53;20.63;;;5.13;;
1344;SDS011;15375;48.540;9.268;2023-02-04T10:30:21;11.40;;;4.00;;
1344;SDS011;15375;48.540;9.268;2023-02-04T10:35:59;14.30;;;4.00;;
1344;SDS011;15375;48.540;9.268;2023-02-04T10:38:24;5.33;;;3.40;;
1344;SDS011;15375;48.540;9.268;2023-02-04T10:41:02;12.17;;;4.10;;
1344;SDS011;15375;48.540;9.268;2023-02-04T10:43:29;10.77;;;4.57;;
1344;SDS011;15375;48.540;9.268;2023-02-04T10:45:56;6.77;;;3.80;;
1344;SDS011;15375;48.540;9.268;2023-02-04T10:48:24;13.60;;;5.60;;
1344;SDS011;15375;48.540;9.268;2023-02-04T10:50:50;7.97;;;3.90;;
1344;SDS011;15375;48.540;9.268;2023-02-04T10:53:19;7.83;;;3.30;;
1344;SDS011;15375;48.540;9.268;2023-02-04T10:56:15;8.23;;;2.80;;
1344;SDS011;15375;48.540;9.268;2023-02-04T10:58:44;6.93;;;3.80;;
1344;SDS011;15375;48.540;9.268;2023-02-04T11:01:10;7.63;;;3.30;;
1344;SDS011;15375;48.540;9.268;2023-02-04T11:03:37;8.23;;;3.07;;
1344;SDS011;15375;48.540;9.268;2023-02-04T11:06:04;16.50;;;3.87;;
1344;SDS011;15375;48.540;9.268;2023-02-04T11:08:35;17.03;;;3.20;;
1344;SDS011;15375;48.540;9.268;2023-02-04T11:11:06;13.30;;;3.43;;
1344;SDS011;15375;48.540;9.268;2023-02-04T11:13:41;5.77;;;3.03;;
1344;SDS011;15375;48.540;9.268;2023-02-04T11:19:29;13.00;;;3.63;;
1344;SDS011;15375;48.540;9.268;2023-02-04T11:24:03;9.53;;;3.13;;
1344;SDS011;15375;48.540;9.268;2023-02-04T11:26:35;11.83;;;3.33;;
1344;SDS011;15375;48.540;9.268;2023-02-04T11:32:26;9.83;;;2.80;;
1344;SDS011;15375;48.540;9.268;2023-02-04T11:36:55;9.67;;;2.90;;
1344;SDS011;15375;48.540;9.268;2023-02-04T11:39:21;6.17;;;2.53;;
1344;SDS011;15375;48.540;9.268;2023-02-04T11:41:48;11.67;;;3.83;;
1344;SDS011;15375;48.540;9.268;2023-02-04T11:44:14;7.67;;;2.80;;
1344;SDS011;15375;48.540;9.268;2023-02-04T11:46:40;7.20;;;2.87;;
1344;SDS011;15375;48.540;9.268;2023-02-04T11:49:14;11.97;;;3.67;;
1344;SDS011;15375;48.540;9.268;2023-02-04T11:51:42;11.13;;;2.40;;
1344;SDS011;15375;48.540;9.268;2023-02-04T11:54:14;11.10;;;3.33;;
1344;SDS011;15375;48.540;9.268;2023-02-04T11:56:43;5.10;;;2.87;;
1344;SDS011;15375;48.540;9.268;2023-02-04T11:59:11;11.70;;;2.83;;
1344;SDS011;15375;48.540;9.268;2023-02-04T12:01:37;8.00;;;2.67;;
1344;SDS011;15375;48.540;9.268;2023-02-04T12:04:04;7.37;;;2.70;;
1344;SDS011;15375;48.540;9.268;2023-02-04T12:06:32;12.97;;;2.50;;
1344;SDS011;15375;48.540;9.268;2023-02-04T12:11:39;5.30;;;3.23;;
1344;SDS011;15375;48.540;9.268;2023-02-04T12:14:17;8.83;;;2.90;;
1344;SDS011;15375;48.540;9.268;2023-02-04T12:16:44;8.93;;;2.73;;
1344;SDS011;15375;48.540;9.268;2023-02-04T12:19:11;15.67;;;2.77;;
1344;SDS011;15375;48.540;9.268;2023-02-04T12:21:37;6.53;;;2.50;;
1344;SDS011;15375;48.540;9.268;2023-02-04T12:24:02;5.70;;;2.30;;
1344;SDS011;15375;48.540;9.268;2023-02-04T12:26:28;8.20;;;2.67;;
1344;SDS011;15375;48.540;9.268;2023-02-04T12:28:54;6.40;;;1.97;;
1344;SDS011;15375;48.540;9.268;2023-02-04T12:31:19;6.00;;;2.03;;
1344;SDS011;15375;48.540;9.268;2023-02-04T12:33:45;6.00;;;2.20;;
1344;SDS011;15375;48.540;9.268;2023-02-04T12:36:10;4.93;;;1.80;;
1344;SDS011;15375;48.540;9.268;2023-02-04T12:38:36;6.60;;;2.30;;
1344;SDS011;15375;48.540;9.268;2023-02-04T12:41:01;11.27;;;2.83;;
1344;SDS011;15375;48.540;9.268;2023-02-04T12:43:26;9.10;;;2.20;;
1344;SDS011;15375;48.540;9.268;2023-02-04T12:45:52;7.80;;;2.60;;
1344;SDS011;15375;48.540;9.268;2023-02-04T12:48:17;7.40;;;2.57;;
1344;SDS011;15375;48.540;9.268;2023-02-04T12:50:42;9.17;;;2.13;;
1344;SDS011;15375;48.540;9.268;2023-02-04T12:53:08;10.37;;;2.57;;
1344;SDS011;15375;48.540;9.268;2023-02-04T12:55:33;7.30;;;3.10;;
1344;SDS011;15375;48.540;9.268;2023-02-04T12:57:59;6.43;;;2.47;;
1344;SDS011;15375;48.540;9.268;2023-02-04T13:00:24;8.23;;;3.10;;
1344;SDS011;15375;48.540;9.268;2023-02-04T13:02:51;3.40;;;2.07;;
1344;SDS011;15375;48.540;9.268;2023-02-04T13:05:19;8.70;;;3.63;;
1344;SDS011;15375;48.540;9.268;2023-02-04T13:07:44;7.50;;;2.30;;
1344;SDS011;15375;48.540;9.268;2023-02-04T13:10:10;13.33;;;3.07;;
1344;SDS011;15375;48.540;9.268;2023-02-04T13:12:37;8.17;;;2.80;;
1344;SDS011;15375;48.540;9.268;2023-02-04T13:15:02;6.07;;;2.30;;
1344;SDS011;15375;48.540;9.268;2023-02-04T13:17:28;8.07;;;3.13;;
1344;SDS011;15375;48.540;9.268;2023-02-04T13:19:54;6.63;;;2.73;;
1344;SDS011;15375;48.540;9.268;2023-02-04T13:22:19;11.93;;;3.57;;
1344;SDS011;15375;48.540;9.268;2023-02-04T13:24:44;13.40;;;3.40;;
1344;SDS011;15375;48.540;9.268;2023-02-04T13:27:10;8.97;;;3.80;;
1344;SDS011;15375;48.540;9.268;2023-02-04T13:29:35;8.37;;;3.60;;
1344;SDS011;15375;48.540;9.268;2023-02-04T13:32:01;7.63;;;3.10;;
1344;SDS011;15375;48.540;9.268;2023-02-04T13:34:26;10.83;;;3.07;;
1344;SDS011;15375;48.540;9.268;2023-02-04T13:36:52;11.60;;;2.90;;
1344;SDS011;15375;48.540;9.268;2023-02-04T13:39:18;8.10;;;3.10;;
1344;SDS011;15375;48.540;9.268;2023-02-04T13:41:43;9.53;;;3.57;;
1344;SDS011;15375;48.540;9.268;2023-02-04T13:44:08;5.90;;;2.37;;
1344;SDS011;15375;48.540;9.268;2023-02-04T13:46:34;12.40;;;3.47;;
1344;SDS011;15375;48.540;9.268;2023-02-04T13:48:59;7.33;;;2.60;;
1344;SDS011;15375;48.540;9.268;2023-02-04T13:51:24;12.07;;;3.13;;
1344;SDS011;15375;48.540;9.268;2023-02-04T13:53:50;8.43;;;4.53;;
1344;SDS011;15375;48.540;9.268;2023-02-04T13:56:15;11.00;;;2.93;;
1344;SDS011;15375;48.540;9.268;2023-02-04T13:58:40;14.43;;;2.97;;
1344;SDS011;15375;48.540;9.268;2023-02-04T14:01:11;13.93;;;3.53;;
1344;SDS011;15375;48.540;9.268;2023-02-04T14:03:37;5.53;;;2.47;;
1344;SDS011;15375;48.540;9.268;2023-02-04T14:06:03;10.00;;;3.60;;
1344;SDS011;15375;48.540;9.268;2023-02-04T14:08:28;11.07;;;3.17;;
1344;SDS011;15375;48.540;9.268;2023-02-04T14:10:54;4.07;;;3.07;;
1344;SDS011;15375;48.540;9.268;2023-02-04T14:13:19;8.80;;;2.87;;
1344;SDS011;15375;48.540;9.268;2023-02-04T14:15:44;9.03;;;3.10;;
1344;SDS011;15375;48.540;9.268;2023-02-04T14:18:10;9.27;;;2.97;;
1344;SDS011;15375;48.540;9.268;2023-02-04T14:20:36;8.53;;;3.20;;
1344;SDS011;15375;48.540;9.268;2023-02-04T14:23:02;8.70;;;2.93;;
1344;SDS011;15375;48.540;9.268;2023-02-04T14:25:29;10.97;;;3.10;;
1344;SDS011;15375;48.540;9.268;2023-02-04T14:27:54;13.60;;;3.40;;
1344;SDS011;15375;48.540;9.268;2023-02-04T14:30:22;8.97;;;3.50;;
1344;SDS011;15375;48.540;9.268;2023-02-04T14:32:50;6.17;;;2.60;;
1344;SDS011;15375;48.540;9.268;2023-02-04T14:35:16;22.83;;;3.53;;
1344;SDS011;15375;48.540;9.268;2023-02-04T14:37:43;9.33;;;3.03;;
1344;SDS011;15375;48.540;9.268;2023-02-04T14:40:09;11.37;;;3.80;;
1344;SDS011;15375;48.540;9.268;2023-02-04T14:42:36;7.47;;;3.40;;
1344;SDS011;15375;48.540;9.268;2023-02-04T14:45:03;6.70;;;2.60;;
1344;SDS011;15375;48.540;9.268;2023-02-04T14:47:38;6.47;;;3.00;;
1344;SDS011;15375;48.540;9.268;2023-02-04T14:50:04;10.87;;;3.20;;
1344;SDS011;15375;48.540;9.268;2023-02-04T14:52:33;5.73;;;3.00;;
1344;SDS011;15375;48.540;9.268;2023-02-04T14:54:59;11.10;;;3.77;;
1344;SDS011;15375;48.540;9.268;2023-02-04T14:57:24;9.67;;;2.87;;
1344;SDS011;15375;48.540;9.268;2023-02-04T14:59:50;11.23;;;2.90;;
1344;SDS011;15375;48.540;9.268;2023-02-04T15:02:15;7.53;;;2.80;;
1344;SDS011;15375;48.540;9.268;2023-02-04T15:04:41;9.40;;;2.80;;
1344;SDS011;15375;48.540;9.268;2023-02-04T15:07:07;15.30;;;4.40;;
1344;SDS011;15375;48.540;9.268;2023-02-04T15:09:33;5.57;;;2.60;;
1344;SDS011;15375;48.540;9.268;2023-02-04T15:11:58;10.00;;;3.47;;